sensor_id;sensor_type;location;lat;lon;timestamp;pressure;altitude;pressure_sealevel;temperature;humidity
31092;BME280;67728;53.122;12.776;2023-04-08T00:01:29;101338.75;;;4.29;91.42
31092;BME280;67728;53.122;12.776;2023-04-08T00:03:01;101337.09;;;4.33;90.95
31092;BME280;67728;53.122;12.776;2023-04-08T00:04:32;101343.09;;;4.32;91.12
31092;BME280;67728;53.122;12.776;2023-04-08T00:06:03;101342.22;;;4.31;91.18
31092;BME280;67728;53.122;12.776;2023-04-08T00:07:35;101332.03;;;4.36;91.28
31092;BME280;67728;53.122;12.776;2023-04-08T00:09:06;101332.88;;;4.35;91.34
31092;BME280;67728;53.122;12.776;2023-04-08T00:10:38;101338.03;;;4.36;91.07
31092;BME280;67728;53.122;12.776;2023-04-08T00:12:11;101341.41;;;4.34;91.13
31092;BME280;67728;53.122;12.776;2023-04-08T00:13:42;101331.19;;;4.35;91.12
31092;BME280;67728;53.122;12.776;2023-04-08T00:15:15;101338.78;;;4.31;91.12
31092;BME280;67728;53.122;12.776;2023-04-08T00:16:46;101343.16;;;4.36;91.32
31092;BME280;67728;53.122;12.776;2023-04-08T00:18:18;101339.66;;;4.31;91.52
31092;BME280;67728;53.122;12.776;2023-04-08T00:19:48;101329.31;;;4.28;91.62
31092;BME280;67728;53.122;12.776;2023-04-08T00:21:20;101331.06;;;4.29;91.38
31092;BME280;67728;53.122;12.776;2023-04-08T00:22:51;101331.06;;;4.31;91.33
31092;BME280;67728;53.122;12.776;2023-04-08T00:24:22;101330.19;;;4.30;90.97
31092;BME280;67728;53.122;12.776;2023-04-08T00:25:54;101321.69;;;4.31;91.24
31092;BME280;67728;53.122;12.776;2023-04-08T00:27:27;101328.50;;;4.31;91.36
31092;BME280;67728;53.122;12.776;2023-04-08T00:28:59;101335.31;;;4.29;91.75
31092;BME280;67728;53.122;12.776;2023-04-08T00:30:30;101336.16;;;4.28;91.39
31092;BME280;67728;53.122;12.776;2023-04-08T00:32:02;101330.19;;;4.29;91.05
31092;BME280;67728;53.122;12.776;2023-04-08T00:33:34;101331.00;;;4.28;91.50
31092;BME280;67728;53.122;12.776;2023-04-08T00:35:06;101330.19;;;4.29;91.67
31092;BME280;67728;53.122;12.776;2023-04-08T00:36:37;101337.97;;;4.32;91.08
31092;BME280;67728;53.122;12.776;2023-04-08T00:38:09;101335.34;;;4.30;91.62
31092;BME280;67728;53.122;12.776;2023-04-08T00:39:41;101331.94;;;4.31;91.42
31092;BME280;67728;53.122;12.776;2023-04-08T00:41:12;101337.00;;;4.27;91.20
31092;BME280;67728;53.122;12.776;2023-04-08T00:42:46;101332.69;;;4.26;91.34
31092;BME280;67728;53.122;12.776;2023-04-08T00:44:16;101337.81;;;4.26;91.56
31092;BME280;67728;53.122;12.776;2023-04-08T00:45:48;101343.91;;;4.31;91.63
31092;BME280;67728;53.122;12.776;2023-04-08T00:47:20;101348.97;;;4.28;91.63
31092;BME280;67728;53.122;12.776;2023-04-08T00:48:53;101339.66;;;4.31;91.65
31092;BME280;67728;53.122;12.776;2023-04-08T00:50:25;101337.91;;;4.30;91.69
31092;BME280;67728;53.122;12.776;2023-04-08T00:51:57;101340.53;;;4.32;91.54
31092;BME280;67728;53.122;12.776;2023-04-08T00:53:30;101344.72;;;4.27;91.73
31092;BME280;67728;53.122;12.776;2023-04-08T00:55:02;101343.03;;;4.29;91.70
31092;BME280;67728;53.122;12.776;2023-04-08T00:56:34;101345.47;;;4.22;91.91
31092;BME280;67728;53.122;12.776;2023-04-08T00:58:07;101330.19;;;4.27;91.76
31092;BME280;67728;53.122;12.776;2023-04-08T00:59:39;101341.22;;;4.24;91.91
31092;BME280;67728;53.122;12.776;2023-04-08T01:01:14;101347.09;;;4.19;92.28
31092;BME280;67728;53.122;12.776;2023-04-08T01:02:56;101334.44;;;4.27;91.76
31092;BME280;67728;53.122;12.776;2023-04-08T01:04:39;101341.22;;;4.24;91.96
31092;BME280;67728;53.122;12.776;2023-04-08T01:06:18;101331.81;;;4.23;91.93
31092;BME280;67728;53.122;12.776;2023-04-08T01:07:52;101336.06;;;4.21;92.00
31092;BME280;67728;53.122;12.776;2023-04-08T01:09:27;101342.06;;;4.23;92.11
31092;BME280;67728;53.122;12.776;2023-04-08T01:11:01;101347.97;;;4.19;92.42
31092;BME280;67728;53.122;12.776;2023-04-08T01:12:50;101345.50;;;4.24;91.87
31092;BME280;67728;53.122;12.776;2023-04-08T01:14:27;101332.63;;;4.22;92.22
31092;BME280;67728;53.122;12.776;2023-04-08T01:16:00;101333.56;;;4.26;92.42
31092;BME280;67728;53.122;12.776;2023-04-08T01:17:33;101333.50;;;4.23;91.73
31092;BME280;67728;53.122;12.776;2023-04-08T01:19:07;101334.38;;;4.23;92.08
31092;BME280;67728;53.122;12.776;2023-04-08T01:20:39;101336.94;;;4.23;92.04
31092;BME280;67728;53.122;12.776;2023-04-08T01:22:19;101344.72;;;4.27;92.27
31092;BME280;67728;53.122;12.776;2023-04-08T01:23:58;101335.31;;;4.27;92.10
31092;BME280;67728;53.122;12.776;2023-04-08T01:25:33;101331.06;;;4.29;91.98
31092;BME280;67728;53.122;12.776;2023-04-08T01:27:08;101354.09;;;4.26;92.11
31092;BME280;67728;53.122;12.776;2023-04-08T01:28:40;101349.84;;;4.28;92.21
31092;BME280;67728;53.122;12.776;2023-04-08T01:30:13;101337.06;;;4.30;91.91
31092;BME280;67728;53.122;12.776;2023-04-08T01:31:46;101343.91;;;4.31;91.73
31092;BME280;67728;53.122;12.776;2023-04-08T01:33:18;101340.38;;;4.24;91.59
31092;BME280;67728;53.122;12.776;2023-04-08T01:34:52;101338.56;;;4.18;92.07
31092;BME280;67728;53.122;12.776;2023-04-08T01:36:24;101343.69;;;4.18;92.17
31092;BME280;67728;53.122;12.776;2023-04-08T01:37:58;101336.97;;;4.25;92.08
31092;BME280;67728;53.122;12.776;2023-04-08T01:39:30;101338.75;;;4.29;92.17
31092;BME280;67728;53.122;12.776;2023-04-08T01:41:04;101347.16;;;4.20;91.83
31092;BME280;67728;53.122;12.776;2023-04-08T01:42:38;101350.59;;;4.22;92.20
31092;BME280;67728;53.122;12.776;2023-04-08T01:44:10;101343.78;;;4.24;92.54
31092;BME280;67728;53.122;12.776;2023-04-08T01:45:46;101350.66;;;4.26;92.12
31092;BME280;67728;53.122;12.776;2023-04-08T01:47:18;101352.34;;;4.25;92.34
31092;BME280;67728;53.122;12.776;2023-04-08T01:48:50;101350.59;;;4.21;92.02
31092;BME280;67728;53.122;12.776;2023-04-08T01:50:24;101342.09;;;4.25;92.00
31092;BME280;67728;53.122;12.776;2023-04-08T01:51:57;101358.22;;;4.19;92.12
31092;BME280;67728;53.122;12.776;2023-04-08T01:53:29;101363.44;;;4.22;92.04
31092;BME280;67728;53.122;12.776;2023-04-08T01:55:00;101365.13;;;4.22;92.12
31092;BME280;67728;53.122;12.776;2023-04-08T01:56:35;101362.47;;;4.16;92.30
31092;BME280;67728;53.122;12.776;2023-04-08T01:58:11;101376.13;;;4.16;92.26
31092;BME280;67728;53.122;12.776;2023-04-08T01:59:50;101373.63;;;4.18;92.29
31092;BME280;67728;53.122;12.776;2023-04-08T02:01:24;101367.63;;;4.19;92.51
31092;BME280;67728;53.122;12.776;2023-04-08T02:02:58;101366.84;;;4.21;92.09
31092;BME280;67728;53.122;12.776;2023-04-08T02:04:30;101371.13;;;4.21;92.03
31092;BME280;67728;53.122;12.776;2023-04-08T02:06:02;101374.50;;;4.18;92.50
31092;BME280;67728;53.122;12.776;2023-04-08T02:07:34;101374.50;;;4.18;92.07
31092;BME280;67728;53.122;12.776;2023-04-08T02:09:05;101371.13;;;4.22;92.32
31092;BME280;67728;53.122;12.776;2023-04-08T02:10:38;101378.69;;;4.16;92.26
31092;BME280;67728;53.122;12.776;2023-04-08T02:12:08;101366.78;;;4.18;92.06
31092;BME280;67728;53.122;12.776;2023-04-08T02:13:42;101367.63;;;4.17;92.50
31092;BME280;67728;53.122;12.776;2023-04-08T02:15:13;101360.63;;;4.10;92.03
31092;BME280;67728;53.122;12.776;2023-04-08T02:16:49;101365.75;;;4.10;92.52
31092;BME280;67728;53.122;12.776;2023-04-08T02:18:24;101371.78;;;4.12;92.71
31092;BME280;67728;53.122;12.776;2023-04-08T02:20:02;101376.22;;;4.19;92.50
31092;BME280;67728;53.122;12.776;2023-04-08T02:21:38;101366.66;;;4.12;92.56
31092;BME280;67728;53.122;12.776;2023-04-08T02:23:15;101369.25;;;4.14;92.27
31092;BME280;67728;53.122;12.776;2023-04-08T02:24:49;101371.66;;;4.06;92.80
31092;BME280;67728;53.122;12.776;2023-04-08T02:26:21;101377.63;;;4.05;92.68
31092;BME280;67728;53.122;12.776;2023-04-08T02:27:55;101377.59;;;4.04;92.74
31092;BME280;67728;53.122;12.776;2023-04-08T02:29:30;101375.06;;;4.05;92.96
31092;BME280;67728;53.122;12.776;2023-04-08T02:31:02;101366.53;;;4.06;92.81
31092;BME280;67728;53.122;12.776;2023-04-08T02:32:36;101372.53;;;4.07;93.17
31092;BME280;67728;53.122;12.776;2023-04-08T02:34:09;101367.47;;;4.10;92.75
31092;BME280;67728;53.122;12.776;2023-04-08T02:35:43;101367.41;;;4.08;93.16
31092;BME280;67728;53.122;12.776;2023-04-08T02:37:15;101375.91;;;4.06;92.88
31092;BME280;67728;53.122;12.776;2023-04-08T02:38:47;101373.34;;;4.06;92.89
31092;BME280;67728;53.122;12.776;2023-04-08T02:40:23;101379.44;;;4.11;92.89
31092;BME280;67728;53.122;12.776;2023-04-08T02:41:55;101387.22;;;4.14;92.73
31092;BME280;67728;53.122;12.776;2023-04-08T02:43:27;101389.03;;;4.19;93.01
31092;BME280;67728;53.122;12.776;2023-04-08T02:45:03;101384.69;;;4.15;92.68
31092;BME280;67728;53.122;12.776;2023-04-08T02:46:35;101387.09;;;4.08;92.87
31092;BME280;67728;53.122;12.776;2023-04-08T02:48:06;101392.31;;;4.12;92.95
31092;BME280;67728;53.122;12.776;2023-04-08T02:49:37;101382.78;;;4.07;93.22
31092;BME280;67728;53.122;12.776;2023-04-08T02:51:09;101389.69;;;4.09;92.72
31092;BME280;67728;53.122;12.776;2023-04-08T02:52:40;101381.91;;;4.06;93.01
31092;BME280;67728;53.122;12.776;2023-04-08T02:54:13;101375.16;;;4.10;93.02
31092;BME280;67728;53.122;12.776;2023-04-08T02:55:44;101382.94;;;4.13;92.72
31092;BME280;67728;53.122;12.776;2023-04-08T02:57:15;101388.00;;;4.10;92.84
31092;BME280;67728;53.122;12.776;2023-04-08T02:58:47;101382.88;;;4.10;92.93
31092;BME280;67728;53.122;12.776;2023-04-08T03:00:19;101385.38;;;4.08;92.74
31092;BME280;67728;53.122;12.776;2023-04-08T03:01:50;101386.97;;;4.03;92.94
31092;BME280;67728;53.122;12.776;2023-04-08T03:03:22;101393.00;;;4.04;92.66
31092;BME280;67728;53.122;12.776;2023-04-08T03:04:58;101385.34;;;4.05;92.99
31092;BME280;67728;53.122;12.776;2023-04-08T03:06:30;101389.66;;;4.08;92.88
31092;BME280;67728;53.122;12.776;2023-04-08T03:08:02;101387.06;;;4.06;92.86
31092;BME280;67728;53.122;12.776;2023-04-08T03:09:33;101383.53;;;4.03;92.65
31092;BME280;67728;53.122;12.776;2023-04-08T03:11:04;101392.25;;;4.08;92.74
31092;BME280;67728;53.122;12.776;2023-04-08T03:12:36;101385.28;;;4.02;92.95
31092;BME280;67728;53.122;12.776;2023-04-08T03:14:07;101399.72;;;3.99;92.92
31092;BME280;67728;53.122;12.776;2023-04-08T03:15:41;101390.41;;;4.02;92.86
31092;BME280;67728;53.122;12.776;2023-04-08T03:17:13;101397.25;;;4.03;93.00
31092;BME280;67728;53.122;12.776;2023-04-08T03:18:44;101396.38;;;4.03;92.65
31092;BME280;67728;53.122;12.776;2023-04-08T03:20:16;101398.19;;;4.07;92.63
31092;BME280;67728;53.122;12.776;2023-04-08T03:21:46;101404.94;;;4.03;92.56
31092;BME280;67728;53.122;12.776;2023-04-08T03:23:18;101405.03;;;4.06;92.66
31092;BME280;67728;53.122;12.776;2023-04-08T03:24:50;101408.47;;;4.08;92.50
31092;BME280;67728;53.122;12.776;2023-04-08T03:26:21;101408.38;;;4.04;92.52
31092;BME280;67728;53.122;12.776;2023-04-08T03:27:52;101413.50;;;4.02;92.47
31092;BME280;67728;53.122;12.776;2023-04-08T03:29:24;101413.44;;;4.01;92.20
31092;BME280;67728;53.122;12.776;2023-04-08T03:30:56;101413.53;;;4.04;92.73
31092;BME280;67728;53.122;12.776;2023-04-08T03:32:27;101416.03;;;4.01;92.73
31092;BME280;67728;53.122;12.776;2023-04-08T03:33:59;101415.28;;;4.05;92.73
31092;BME280;67728;53.122;12.776;2023-04-08T03:35:30;101417.94;;;4.09;92.34
31092;BME280;67728;53.122;12.776;2023-04-08T03:37:02;101410.88;;;4.01;92.67
31092;BME280;67728;53.122;12.776;2023-04-08T03:38:34;101419.44;;;4.00;92.61
31092;BME280;67728;53.122;12.776;2023-04-08T03:40:07;101416.81;;;3.97;92.52
31092;BME280;67728;53.122;12.776;2023-04-08T03:41:38;101426.25;;;3.99;92.73
31092;BME280;67728;53.122;12.776;2023-04-08T03:43:10;101420.34;;;4.02;92.31
31092;BME280;67728;53.122;12.776;2023-04-08T03:44:41;101418.50;;;3.98;92.65
31092;BME280;67728;53.122;12.776;2023-04-08T03:46:14;101425.41;;;4.00;92.53
31092;BME280;67728;53.122;12.776;2023-04-08T03:47:46;101415.13;;;3.99;91.95
31092;BME280;67728;53.122;12.776;2023-04-08T03:49:17;101420.25;;;3.99;92.61
31092;BME280;67728;53.122;12.776;2023-04-08T03:50:48;101418.66;;;4.04;92.65
31092;BME280;67728;53.122;12.776;2023-04-08T03:52:20;101425.53;;;4.05;92.50
31092;BME280;67728;53.122;12.776;2023-04-08T03:53:51;101431.28;;;3.95;92.45
31092;BME280;67728;53.122;12.776;2023-04-08T03:55:23;101419.25;;;3.92;92.61
31092;BME280;67728;53.122;12.776;2023-04-08T03:56:55;101433.00;;;3.94;93.01
31092;BME280;67728;53.122;12.776;2023-04-08T03:58:25;101428.69;;;3.93;92.83
31092;BME280;67728;53.122;12.776;2023-04-08T03:59:57;101428.72;;;3.95;92.72
31092;BME280;67728;53.122;12.776;2023-04-08T04:01:30;101437.25;;;3.94;92.75
31092;BME280;67728;53.122;12.776;2023-04-08T04:03:01;101435.59;;;3.96;92.71
31092;BME280;67728;53.122;12.776;2023-04-08T04:04:33;101427.88;;;3.94;92.84
31092;BME280;67728;53.122;12.776;2023-04-08T04:06:06;101438.13;;;3.94;92.95
31092;BME280;67728;53.122;12.776;2023-04-08T04:07:37;101437.09;;;3.86;92.77
31092;BME280;67728;53.122;12.776;2023-04-08T04:09:09;101419.88;;;3.82;92.54
31092;BME280;67728;53.122;12.776;2023-04-08T04:10:41;101438.16;;;3.96;93.06
31092;BME280;67728;53.122;12.776;2023-04-08T04:12:13;101434.63;;;3.92;92.73
31092;BME280;67728;53.122;12.776;2023-04-08T04:13:45;101440.69;;;3.94;92.72
31092;BME280;67728;53.122;12.776;2023-04-08T04:15:17;101448.41;;;3.96;92.86
31092;BME280;67728;53.122;12.776;2023-04-08T04:16:49;101450.84;;;3.90;92.39
31092;BME280;67728;53.122;12.776;2023-04-08T04:18:20;101445.06;;;3.98;92.78
31092;BME280;67728;53.122;12.776;2023-04-08T04:19:52;101448.25;;;3.88;92.65
31092;BME280;67728;53.122;12.776;2023-04-08T04:21:24;101448.25;;;3.88;92.57
31092;BME280;67728;53.122;12.776;2023-04-08T04:22:56;101455.16;;;3.92;92.71
31092;BME280;67728;53.122;12.776;2023-04-08T04:24:28;101451.78;;;3.93;92.65
31092;BME280;67728;53.122;12.776;2023-04-08T04:25:58;101451.75;;;3.92;92.77
31092;BME280;67728;53.122;12.776;2023-04-08T04:27:30;101453.44;;;3.91;92.62
31092;BME280;67728;53.122;12.776;2023-04-08T04:29:02;101449.13;;;3.89;92.46
31092;BME280;67728;53.122;12.776;2023-04-08T04:30:35;101447.44;;;3.91;92.40
31092;BME280;67728;53.122;12.776;2023-04-08T04:32:08;101456.81;;;3.89;92.65
31092;BME280;67728;53.122;12.776;2023-04-08T04:33:40;101451.63;;;3.87;92.72
31092;BME280;67728;53.122;12.776;2023-04-08T04:35:11;101450.81;;;3.88;92.69
31092;BME280;67728;53.122;12.776;2023-04-08T04:36:43;101461.06;;;3.88;92.65
31092;BME280;67728;53.122;12.776;2023-04-08T04:38:15;101460.25;;;3.89;92.47
31092;BME280;67728;53.122;12.776;2023-04-08T04:39:46;101457.63;;;3.86;92.42
31092;BME280;67728;53.122;12.776;2023-04-08T04:41:18;101450.00;;;3.89;92.71
31092;BME280;67728;53.122;12.776;2023-04-08T04:42:49;101454.28;;;3.90;92.66
31092;BME280;67728;53.122;12.776;2023-04-08T04:44:20;101455.97;;;3.90;92.90
31092;BME280;67728;53.122;12.776;2023-04-08T04:45:51;101456.97;;;3.96;92.39
31092;BME280;67728;53.122;12.776;2023-04-08T04:47:24;101456.75;;;3.87;92.63
31092;BME280;67728;53.122;12.776;2023-04-08T04:48:55;101450.72;;;3.85;92.20
31092;BME280;67728;53.122;12.776;2023-04-08T04:50:26;101451.75;;;3.92;92.58
31092;BME280;67728;53.122;12.776;2023-04-08T04:51:58;101453.53;;;3.94;92.22
31092;BME280;67728;53.122;12.776;2023-04-08T04:53:29;101456.91;;;3.93;92.28
31092;BME280;67728;53.122;12.776;2023-04-08T04:55:01;101455.13;;;3.89;92.38
31092;BME280;67728;53.122;12.776;2023-04-08T04:56:33;101458.59;;;3.91;92.12
31092;BME280;67728;53.122;12.776;2023-04-08T04:58:04;101454.31;;;3.92;92.58
31092;BME280;67728;53.122;12.776;2023-04-08T04:59:36;101453.44;;;3.91;92.75
31092;BME280;67728;53.122;12.776;2023-04-08T05:01:07;101455.16;;;3.92;92.65
31092;BME280;67728;53.122;12.776;2023-04-08T05:02:40;101460.28;;;3.92;92.72
31092;BME280;67728;53.122;12.776;2023-04-08T05:04:12;101465.38;;;3.89;92.26
31092;BME280;67728;53.122;12.776;2023-04-08T05:05:44;101466.94;;;3.84;92.51
31092;BME280;67728;53.122;12.776;2023-04-08T05:07:14;101472.22;;;3.89;92.76
31092;BME280;67728;53.122;12.776;2023-04-08T05:08:46;101463.78;;;3.94;92.55
31092;BME280;67728;53.122;12.776;2023-04-08T05:10:18;101470.53;;;3.89;93.05
31092;BME280;67728;53.122;12.776;2023-04-08T05:11:49;101467.97;;;3.91;92.67
31092;BME280;67728;53.122;12.776;2023-04-08T05:13:20;101475.78;;;3.95;92.35
31092;BME280;67728;53.122;12.776;2023-04-08T05:14:52;101477.53;;;3.98;92.38
31092;BME280;67728;53.122;12.776;2023-04-08T05:16:23;101475.75;;;3.94;92.37
31092;BME280;67728;53.122;12.776;2023-04-08T05:17:56;101480.81;;;3.91;92.55
31092;BME280;67728;53.122;12.776;2023-04-08T05:19:28;101481.69;;;3.91;92.79
31092;BME280;67728;53.122;12.776;2023-04-08T05:21:00;101488.47;;;3.89;92.67
31092;BME280;67728;53.122;12.776;2023-04-08T05:22:31;101491.03;;;3.89;92.37
31092;BME280;67728;53.122;12.776;2023-04-08T05:24:03;101485.78;;;3.85;92.34
31092;BME280;67728;53.122;12.776;2023-04-08T05:25:35;101506.56;;;3.95;92.35
31092;BME280;67728;53.122;12.776;2023-04-08T05:27:07;101503.09;;;3.93;92.76
31092;BME280;67728;53.122;12.776;2023-04-08T05:28:38;101505.75;;;3.96;92.41
31092;BME280;67728;53.122;12.776;2023-04-08T05:30:11;101511.84;;;4.00;92.32
31092;BME280;67728;53.122;12.776;2023-04-08T05:31:43;101514.41;;;4.00;92.32
31092;BME280;67728;53.122;12.776;2023-04-08T05:33:16;101516.84;;;3.95;92.44
31092;BME280;67728;53.122;12.776;2023-04-08T05:34:47;101518.50;;;3.93;92.37
31092;BME280;67728;53.122;12.776;2023-04-08T05:36:19;101521.97;;;3.95;92.06
31092;BME280;67728;53.122;12.776;2023-04-08T05:37:51;101521.84;;;3.89;92.14
31092;BME280;67728;53.122;12.776;2023-04-08T05:39:22;101507.44;;;3.96;92.55
31092;BME280;67728;53.122;12.776;2023-04-08T05:40:53;101511.78;;;3.98;92.55
31092;BME280;67728;53.122;12.776;2023-04-08T05:42:25;101502.47;;;4.02;92.47
31092;BME280;67728;53.122;12.776;2023-04-08T05:43:57;101507.44;;;3.96;92.43
31092;BME280;67728;53.122;12.776;2023-04-08T05:45:29;101509.22;;;3.98;92.44
31092;BME280;67728;53.122;12.776;2023-04-08T05:47:00;101505.03;;;4.02;92.60
31092;BME280;67728;53.122;12.776;2023-04-08T05:48:33;101501.66;;;4.04;92.60
31092;BME280;67728;53.122;12.776;2023-04-08T05:50:07;101508.53;;;4.05;92.53
31092;BME280;67728;53.122;12.776;2023-04-08T05:51:38;101512.81;;;4.05;92.56
31092;BME280;67728;53.122;12.776;2023-04-08T05:53:09;101518.75;;;4.02;92.43
31092;BME280;67728;53.122;12.776;2023-04-08T05:54:42;101520.25;;;3.94;92.23
31092;BME280;67728;53.122;12.776;2023-04-08T05:56:14;101527.28;;;4.03;92.40
31092;BME280;67728;53.122;12.776;2023-04-08T05:57:45;101516.91;;;3.98;92.78
31092;BME280;67728;53.122;12.776;2023-04-08T05:59:17;101519.56;;;4.01;92.67
31092;BME280;67728;53.122;12.776;2023-04-08T06:00:49;101519.72;;;4.07;92.59
31092;BME280;67728;53.122;12.776;2023-04-08T06:02:20;101520.38;;;4.00;92.38
31092;BME280;67728;53.122;12.776;2023-04-08T06:03:53;101523.00;;;4.02;92.41
31092;BME280;67728;53.122;12.776;2023-04-08T06:05:25;101523.88;;;4.04;92.77
31092;BME280;67728;53.122;12.776;2023-04-08T06:06:57;101533.50;;;4.12;92.75
31092;BME280;67728;53.122;12.776;2023-04-08T06:08:29;101540.16;;;4.04;92.57
31092;BME280;67728;53.122;12.776;2023-04-08T06:10:00;101545.44;;;4.10;92.48
31092;BME280;67728;53.122;12.776;2023-04-08T06:11:32;101545.63;;;4.18;92.59
31092;BME280;67728;53.122;12.776;2023-04-08T06:13:04;101541.53;;;4.26;92.48
31092;BME280;67728;53.122;12.776;2023-04-08T06:14:35;101540.75;;;4.30;92.48
31092;BME280;67728;53.122;12.776;2023-04-08T06:16:10;101550.03;;;4.23;92.73
31092;BME280;67728;53.122;12.776;2023-04-08T06:17:42;101553.44;;;4.22;92.42
31092;BME280;67728;53.122;12.776;2023-04-08T06:19:15;101555.09;;;4.20;92.55
31092;BME280;67728;53.122;12.776;2023-04-08T06:20:47;101557.03;;;4.29;92.06
31092;BME280;67728;53.122;12.776;2023-04-08T06:22:18;101554.22;;;4.18;91.95
31092;BME280;67728;53.122;12.776;2023-04-08T06:23:50;101551.56;;;4.15;92.45
31092;BME280;67728;53.122;12.776;2023-04-08T06:25:21;101554.38;;;4.26;92.11
31092;BME280;67728;53.122;12.776;2023-04-08T06:26:54;101560.13;;;4.16;92.47
31092;BME280;67728;53.122;12.776;2023-04-08T06:28:24;101555.13;;;4.22;92.30
31092;BME280;67728;53.122;12.776;2023-04-08T06:29:56;101550.78;;;4.19;92.58
31092;BME280;67728;53.122;12.776;2023-04-08T06:31:27;101554.38;;;4.26;92.64
31092;BME280;67728;53.122;12.776;2023-04-08T06:32:59;101558.72;;;4.29;92.56
31092;BME280;67728;53.122;12.776;2023-04-08T06:34:32;101558.78;;;4.32;92.70
31092;BME280;67728;53.122;12.776;2023-04-08T06:36:05;101565.59;;;4.30;92.04
31092;BME280;67728;53.122;12.776;2023-04-08T06:37:37;101567.31;;;4.31;92.07
31092;BME280;67728;53.122;12.776;2023-04-08T06:39:09;101570.59;;;4.25;92.26
31092;BME280;67728;53.122;12.776;2023-04-08T06:40:40;101571.47;;;4.26;92.41
31092;BME280;67728;53.122;12.776;2023-04-08T06:42:12;101567.16;;;4.24;92.38
31092;BME280;67728;53.122;12.776;2023-04-08T06:43:44;101563.94;;;4.33;92.43
31092;BME280;67728;53.122;12.776;2023-04-08T06:45:15;101566.66;;;4.39;92.17
31092;BME280;67728;53.122;12.776;2023-04-08T06:46:47;101563.22;;;4.39;92.09
31092;BME280;67728;53.122;12.776;2023-04-08T06:48:18;101561.38;;;4.33;92.45
31092;BME280;67728;53.122;12.776;2023-04-08T06:49:54;101564.91;;;4.38;92.58
31092;BME280;67728;53.122;12.776;2023-04-08T06:51:25;101571.53;;;4.27;92.66
31092;BME280;67728;53.122;12.776;2023-04-08T06:52:57;101581.84;;;4.30;92.47
31092;BME280;67728;53.122;12.776;2023-04-08T06:54:29;101585.41;;;4.35;92.50
31092;BME280;67728;53.122;12.776;2023-04-08T06:56:01;101581.00;;;4.30;92.53
31092;BME280;67728;53.122;12.776;2023-04-08T06:57:32;101586.94;;;4.27;92.38
31092;BME280;67728;53.122;12.776;2023-04-08T06:59:04;101596.53;;;4.36;92.32
31092;BME280;67728;53.122;12.776;2023-04-08T07:00:36;101591.44;;;4.37;92.65
31092;BME280;67728;53.122;12.776;2023-04-08T07:02:08;101599.34;;;4.45;92.01
31092;BME280;67728;53.122;12.776;2023-04-08T07:03:39;101594.91;;;4.38;92.26
31092;BME280;67728;53.122;12.776;2023-04-08T07:05:13;101600.28;;;4.48;92.25
31092;BME280;67728;53.122;12.776;2023-04-08T07:06:44;101592.69;;;4.54;92.11
31092;BME280;67728;53.122;12.776;2023-04-08T07:08:16;101593.72;;;4.61;91.99
31092;BME280;67728;53.122;12.776;2023-04-08T07:09:48;101583.28;;;4.55;91.82
31092;BME280;67728;53.122;12.776;2023-04-08T07:11:19;101586.72;;;4.54;92.21
31092;BME280;67728;53.122;12.776;2023-04-08T07:12:51;101590.69;;;4.41;91.80
31092;BME280;67728;53.122;12.776;2023-04-08T07:14:22;101593.47;;;4.50;92.05
31092;BME280;67728;53.122;12.776;2023-04-08T07:15:54;101598.56;;;4.49;92.29
31092;BME280;67728;53.122;12.776;2023-04-08T07:17:26;101597.66;;;4.47;92.47
31092;BME280;67728;53.122;12.776;2023-04-08T07:18:57;101599.34;;;4.46;92.42
31092;BME280;67728;53.122;12.776;2023-04-08T07:20:33;101599.34;;;4.46;92.16
31092;BME280;67728;53.122;12.776;2023-04-08T07:22:07;101602.78;;;4.45;92.12
31092;BME280;67728;53.122;12.776;2023-04-08T07:23:39;101611.44;;;4.50;92.25
31092;BME280;67728;53.122;12.776;2023-04-08T07:25:10;101605.50;;;4.53;92.26
31092;BME280;67728;53.122;12.776;2023-04-08T07:26:42;101607.19;;;4.51;92.28
31092;BME280;67728;53.122;12.776;2023-04-08T07:28:14;101603.03;;;4.56;92.48
31092;BME280;67728;53.122;12.776;2023-04-08T07:29:45;101609.94;;;4.60;92.12
31092;BME280;67728;53.122;12.776;2023-04-08T07:31:17;101608.88;;;4.50;91.30
31092;BME280;67728;53.122;12.776;2023-04-08T07:32:49;101611.41;;;4.49;91.97
31092;BME280;67728;53.122;12.776;2023-04-08T07:34:21;101611.34;;;4.46;91.45
31092;BME280;67728;53.122;12.776;2023-04-08T07:35:54;101608.06;;;4.51;92.26
31092;BME280;67728;53.122;12.776;2023-04-08T07:37:25;101604.69;;;4.54;91.99
31092;BME280;67728;53.122;12.776;2023-04-08T07:38:57;101614.25;;;4.61;92.25
31092;BME280;67728;53.122;12.776;2023-04-08T07:40:29;101618.69;;;4.68;91.99
31092;BME280;67728;53.122;12.776;2023-04-08T07:42:00;101622.16;;;4.68;92.20
31092;BME280;67728;53.122;12.776;2023-04-08T07:43:34;101621.81;;;4.53;91.91
31092;BME280;67728;53.122;12.776;2023-04-08T07:45:07;101624.28;;;4.50;91.68
31092;BME280;67728;53.122;12.776;2023-04-08T07:46:39;101626.13;;;4.56;92.14
31092;BME280;67728;53.122;12.776;2023-04-08T07:48:10;101626.28;;;4.62;92.06
31092;BME280;67728;53.122;12.776;2023-04-08T07:49:42;101629.84;;;4.67;92.10
31092;BME280;67728;53.122;12.776;2023-04-08T07:51:17;101627.88;;;4.57;91.83
31092;BME280;67728;53.122;12.776;2023-04-08T07:52:49;101629.50;;;4.53;91.72
31092;BME280;67728;53.122;12.776;2023-04-08T07:54:22;101636.41;;;4.56;91.96
31092;BME280;67728;53.122;12.776;2023-04-08T07:55:54;101628.88;;;4.63;91.77
31092;BME280;67728;53.122;12.776;2023-04-08T07:57:25;101640.13;;;4.68;91.81
31092;BME280;67728;53.122;12.776;2023-04-08T07:58:57;101636.75;;;4.71;91.69
31092;BME280;67728;53.122;12.776;2023-04-08T08:00:28;101641.56;;;4.56;91.46
31092;BME280;67728;53.122;12.776;2023-04-08T08:02:00;101634.59;;;4.52;91.83
31092;BME280;67728;53.122;12.776;2023-04-08T08:03:32;101639.13;;;4.62;91.86